Terminal Aerodrome Forecast
Issued by NWS

Home | Current Version | Previous Version | Text Only | Print | Product List | Glossary On
Versions: 1 2 3 4 5 6 7 8 9 10 11 12 13 14 15 16 17 18 19 20 21
000
FTUS43 KDMX 271127
TAFMCW
TAF
KMCW 271127Z 2712/2812 11006KT P6SM BKN050 OVC070
     FM271800 18008KT P6SM BKN035
     FM280500 15005KT 5SM -TSRA SCT015 OVC060CB
     FM280900 VRB05KT 2SM TSRA BR BKN012CB OVC035=

USA.gov is the U.S. government's official web portal to all federal, state and local government web resources and services.